sensor_id;sensor_type;location;lat;lon;timestamp;P1;durP1;ratioP1;P2;durP2;ratioP2
3633;SDS011;1833;42.718;23.270;2023-08-24T00:00:24;39.67;;;35.60;;
3633;SDS011;1833;42.718;23.270;2023-08-24T00:02:51;39.10;;;35.00;;
3633;SDS011;1833;42.718;23.270;2023-08-24T00:05:19;42.17;;;37.70;;
3633;SDS011;1833;42.718;23.270;2023-08-24T00:07:48;40.17;;;36.20;;
3633;SDS011;1833;42.718;23.270;2023-08-24T00:10:16;40.80;;;36.33;;
3633;SDS011;1833;42.718;23.270;2023-08-24T00:12:44;42.10;;;38.13;;
3633;SDS011;1833;42.718;23.270;2023-08-24T00:15:11;49.60;;;36.40;;
3633;SDS011;1833;42.718;23.270;2023-08-24T00:17:38;40.10;;;36.10;;
3633;SDS011;1833;42.718;23.270;2023-08-24T00:20:06;40.73;;;36.50;;
3633;SDS011;1833;42.718;23.270;2023-08-24T00:22:36;39.00;;;35.20;;
3633;SDS011;1833;42.718;23.270;2023-08-24T00:25:05;37.73;;;34.33;;
3633;SDS011;1833;42.718;23.270;2023-08-24T00:27:33;42.07;;;37.80;;
3633;SDS011;1833;42.718;23.270;2023-08-24T00:30:02;39.07;;;35.47;;
3633;SDS011;1833;42.718;23.270;2023-08-24T00:32:31;39.93;;;36.23;;
3633;SDS011;1833;42.718;23.270;2023-08-24T00:34:59;39.53;;;35.73;;
3633;SDS011;1833;42.718;23.270;2023-08-24T00:37:27;39.90;;;36.27;;
3633;SDS011;1833;42.718;23.270;2023-08-24T00:39:54;40.13;;;35.97;;
3633;SDS011;1833;42.718;23.270;2023-08-24T00:42:23;37.93;;;34.03;;
3633;SDS011;1833;42.718;23.270;2023-08-24T00:44:51;39.30;;;35.70;;
3633;SDS011;1833;42.718;23.270;2023-08-24T00:47:18;39.53;;;35.60;;
3633;SDS011;1833;42.718;23.270;2023-08-24T00:49:46;38.77;;;35.37;;
3633;SDS011;1833;42.718;23.270;2023-08-24T00:52:14;39.70;;;36.10;;
3633;SDS011;1833;42.718;23.270;2023-08-24T00:54:41;40.00;;;36.50;;
3633;SDS011;1833;42.718;23.270;2023-08-24T00:57:08;40.63;;;36.70;;
3633;SDS011;1833;42.718;23.270;2023-08-24T00:59:37;39.97;;;36.33;;
3633;SDS011;1833;42.718;23.270;2023-08-24T01:02:05;41.00;;;36.73;;
3633;SDS011;1833;42.718;23.270;2023-08-24T01:04:32;38.10;;;34.60;;
3633;SDS011;1833;42.718;23.270;2023-08-24T01:06:59;40.00;;;36.43;;
3633;SDS011;1833;42.718;23.270;2023-08-24T01:09:27;40.30;;;36.40;;
3633;SDS011;1833;42.718;23.270;2023-08-24T01:11:58;38.83;;;35.10;;
3633;SDS011;1833;42.718;23.270;2023-08-24T01:14:30;39.37;;;35.80;;
3633;SDS011;1833;42.718;23.270;2023-08-24T01:17:02;40.73;;;37.07;;
3633;SDS011;1833;42.718;23.270;2023-08-24T01:19:34;40.17;;;36.57;;
3633;SDS011;1833;42.718;23.270;2023-08-24T01:22:05;40.90;;;37.20;;
3633;SDS011;1833;42.718;23.270;2023-08-24T01:24:36;40.10;;;36.30;;
3633;SDS011;1833;42.718;23.270;2023-08-24T01:27:06;38.07;;;34.73;;
3633;SDS011;1833;42.718;23.270;2023-08-24T01:29:35;39.50;;;35.50;;
3633;SDS011;1833;42.718;23.270;2023-08-24T01:32:04;40.63;;;36.77;;
3633;SDS011;1833;42.718;23.270;2023-08-24T01:34:31;39.57;;;36.17;;
3633;SDS011;1833;42.718;23.270;2023-08-24T01:36:58;38.80;;;35.40;;
3633;SDS011;1833;42.718;23.270;2023-08-24T01:39:27;40.93;;;37.13;;
3633;SDS011;1833;42.718;23.270;2023-08-24T01:41:56;40.80;;;37.07;;
3633;SDS011;1833;42.718;23.270;2023-08-24T01:44:27;40.90;;;37.00;;
3633;SDS011;1833;42.718;23.270;2023-08-24T01:46:56;40.50;;;36.73;;
3633;SDS011;1833;42.718;23.270;2023-08-24T01:49:25;41.47;;;37.57;;
3633;SDS011;1833;42.718;23.270;2023-08-24T01:51:53;42.33;;;38.67;;
3633;SDS011;1833;42.718;23.270;2023-08-24T01:54:21;42.17;;;38.57;;
3633;SDS011;1833;42.718;23.270;2023-08-24T01:56:48;42.10;;;38.10;;
3633;SDS011;1833;42.718;23.270;2023-08-24T01:59:15;40.70;;;36.87;;
3633;SDS011;1833;42.718;23.270;2023-08-24T02:01:44;42.00;;;37.83;;
3633;SDS011;1833;42.718;23.270;2023-08-24T02:04:11;42.43;;;38.73;;
3633;SDS011;1833;42.718;23.270;2023-08-24T02:06:38;40.07;;;36.57;;
3633;SDS011;1833;42.718;23.270;2023-08-24T02:09:06;39.57;;;36.00;;
3633;SDS011;1833;42.718;23.270;2023-08-24T02:11:33;41.90;;;38.03;;
3633;SDS011;1833;42.718;23.270;2023-08-24T02:14:00;43.87;;;39.30;;
3633;SDS011;1833;42.718;23.270;2023-08-24T02:16:28;44.87;;;40.97;;
3633;SDS011;1833;42.718;23.270;2023-08-24T02:18:56;42.07;;;37.63;;
3633;SDS011;1833;42.718;23.270;2023-08-24T02:21:24;42.03;;;38.10;;
3633;SDS011;1833;42.718;23.270;2023-08-24T02:23:51;40.87;;;36.97;;
3633;SDS011;1833;42.718;23.270;2023-08-24T02:26:18;42.30;;;38.50;;
3633;SDS011;1833;42.718;23.270;2023-08-24T02:28:46;40.70;;;37.00;;
3633;SDS011;1833;42.718;23.270;2023-08-24T02:31:13;42.07;;;38.27;;
3633;SDS011;1833;42.718;23.270;2023-08-24T02:33:41;40.90;;;37.17;;
3633;SDS011;1833;42.718;23.270;2023-08-24T02:36:10;40.57;;;36.57;;
3633;SDS011;1833;42.718;23.270;2023-08-24T02:38:37;41.83;;;37.70;;
3633;SDS011;1833;42.718;23.270;2023-08-24T02:41:04;40.20;;;36.70;;
3633;SDS011;1833;42.718;23.270;2023-08-24T02:43:32;42.97;;;38.77;;
3633;SDS011;1833;42.718;23.270;2023-08-24T02:46:01;42.10;;;38.10;;
3633;SDS011;1833;42.718;23.270;2023-08-24T02:48:28;43.53;;;36.60;;
3633;SDS011;1833;42.718;23.270;2023-08-24T02:50:57;39.87;;;35.73;;
3633;SDS011;1833;42.718;23.270;2023-08-24T02:53:26;40.83;;;37.03;;
3633;SDS011;1833;42.718;23.270;2023-08-24T02:55:53;41.60;;;37.57;;
3633;SDS011;1833;42.718;23.270;2023-08-24T02:58:20;43.07;;;38.97;;
3633;SDS011;1833;42.718;23.270;2023-08-24T03:00:48;43.17;;;37.20;;
3633;SDS011;1833;42.718;23.270;2023-08-24T03:03:16;39.37;;;35.67;;
3633;SDS011;1833;42.718;23.270;2023-08-24T03:05:52;42.73;;;38.20;;
3633;SDS011;1833;42.718;23.270;2023-08-24T03:08:19;41.33;;;37.10;;
3633;SDS011;1833;42.718;23.270;2023-08-24T03:10:48;36.13;;;32.63;;
3633;SDS011;1833;42.718;23.270;2023-08-24T03:13:15;41.07;;;37.10;;
3633;SDS011;1833;42.718;23.270;2023-08-24T03:15:42;40.13;;;36.17;;
3633;SDS011;1833;42.718;23.270;2023-08-24T03:18:10;44.20;;;36.47;;
3633;SDS011;1833;42.718;23.270;2023-08-24T03:20:38;42.20;;;38.30;;
3633;SDS011;1833;42.718;23.270;2023-08-24T03:23:05;40.63;;;37.10;;
3633;SDS011;1833;42.718;23.270;2023-08-24T03:25:35;41.23;;;37.23;;
3633;SDS011;1833;42.718;23.270;2023-08-24T03:28:04;43.43;;;39.43;;
3633;SDS011;1833;42.718;23.270;2023-08-24T03:30:32;43.97;;;39.47;;
3633;SDS011;1833;42.718;23.270;2023-08-24T03:32:59;42.37;;;38.17;;
3633;SDS011;1833;42.718;23.270;2023-08-24T03:35:28;47.50;;;42.93;;
3633;SDS011;1833;42.718;23.270;2023-08-24T03:37:56;44.03;;;39.73;;
3633;SDS011;1833;42.718;23.270;2023-08-24T03:40:23;43.20;;;38.90;;
3633;SDS011;1833;42.718;23.270;2023-08-24T03:42:50;43.37;;;39.23;;
3633;SDS011;1833;42.718;23.270;2023-08-24T03:45:19;41.07;;;37.07;;
3633;SDS011;1833;42.718;23.270;2023-08-24T03:47:47;44.07;;;38.87;;
3633;SDS011;1833;42.718;23.270;2023-08-24T03:50:14;47.40;;;42.80;;
3633;SDS011;1833;42.718;23.270;2023-08-24T03:52:41;41.03;;;37.43;;
3633;SDS011;1833;42.718;23.270;2023-08-24T03:55:09;42.90;;;38.67;;
3633;SDS011;1833;42.718;23.270;2023-08-24T03:57:36;41.73;;;37.53;;
3633;SDS011;1833;42.718;23.270;2023-08-24T04:00:04;42.10;;;38.40;;
3633;SDS011;1833;42.718;23.270;2023-08-24T04:02:34;43.10;;;38.57;;
3633;SDS011;1833;42.718;23.270;2023-08-24T04:05:01;43.40;;;38.60;;
3633;SDS011;1833;42.718;23.270;2023-08-24T04:07:28;41.97;;;38.10;;
3633;SDS011;1833;42.718;23.270;2023-08-24T04:09:56;41.90;;;37.40;;
3633;SDS011;1833;42.718;23.270;2023-08-24T04:12:23;43.70;;;39.27;;
3633;SDS011;1833;42.718;23.270;2023-08-24T04:14:51;42.53;;;38.33;;
3633;SDS011;1833;42.718;23.270;2023-08-24T04:17:18;42.70;;;38.70;;
3633;SDS011;1833;42.718;23.270;2023-08-24T04:19:47;49.63;;;38.70;;
3633;SDS011;1833;42.718;23.270;2023-08-24T04:22:14;42.07;;;38.07;;
3633;SDS011;1833;42.718;23.270;2023-08-24T04:24:41;42.43;;;38.13;;
3633;SDS011;1833;42.718;23.270;2023-08-24T04:27:08;40.70;;;36.40;;
3633;SDS011;1833;42.718;23.270;2023-08-24T04:29:36;42.17;;;38.27;;
3633;SDS011;1833;42.718;23.270;2023-08-24T04:32:03;40.30;;;36.60;;
3633;SDS011;1833;42.718;23.270;2023-08-24T04:34:31;40.10;;;36.10;;
3633;SDS011;1833;42.718;23.270;2023-08-24T04:36:59;47.23;;;38.10;;
3633;SDS011;1833;42.718;23.270;2023-08-24T04:39:28;43.23;;;38.60;;
3633;SDS011;1833;42.718;23.270;2023-08-24T04:41:55;41.47;;;37.30;;
3633;SDS011;1833;42.718;23.270;2023-08-24T04:44:22;41.37;;;36.17;;
3633;SDS011;1833;42.718;23.270;2023-08-24T04:46:50;40.83;;;36.73;;
3633;SDS011;1833;42.718;23.270;2023-08-24T04:49:17;39.70;;;36.03;;
3633;SDS011;1833;42.718;23.270;2023-08-24T04:51:44;39.17;;;35.50;;
3633;SDS011;1833;42.718;23.270;2023-08-24T04:54:13;42.27;;;38.10;;
3633;SDS011;1833;42.718;23.270;2023-08-24T04:56:40;41.20;;;37.40;;
3633;SDS011;1833;42.718;23.270;2023-08-24T04:59:07;39.50;;;35.80;;
3633;SDS011;1833;42.718;23.270;2023-08-24T05:01:35;41.70;;;37.80;;
3633;SDS011;1833;42.718;23.270;2023-08-24T05:04:03;41.83;;;38.03;;
3633;SDS011;1833;42.718;23.270;2023-08-24T05:06:30;40.97;;;36.70;;
3633;SDS011;1833;42.718;23.270;2023-08-24T05:08:57;45.50;;;39.77;;
3633;SDS011;1833;42.718;23.270;2023-08-24T05:11:27;43.63;;;39.40;;
3633;SDS011;1833;42.718;23.270;2023-08-24T05:13:55;43.77;;;39.27;;
3633;SDS011;1833;42.718;23.270;2023-08-24T05:16:23;45.20;;;40.60;;
3633;SDS011;1833;42.718;23.270;2023-08-24T05:18:50;44.00;;;39.50;;
3633;SDS011;1833;42.718;23.270;2023-08-24T05:21:17;43.10;;;39.00;;
3633;SDS011;1833;42.718;23.270;2023-08-24T05:23:44;42.27;;;37.60;;
3633;SDS011;1833;42.718;23.270;2023-08-24T05:26:12;43.90;;;37.77;;
3633;SDS011;1833;42.718;23.270;2023-08-24T05:28:40;42.07;;;38.00;;
3633;SDS011;1833;42.718;23.270;2023-08-24T05:31:08;40.57;;;36.40;;
3633;SDS011;1833;42.718;23.270;2023-08-24T05:33:35;43.37;;;39.27;;
3633;SDS011;1833;42.718;23.270;2023-08-24T05:36:02;46.13;;;39.03;;
3633;SDS011;1833;42.718;23.270;2023-08-24T05:38:30;41.67;;;37.40;;
3633;SDS011;1833;42.718;23.270;2023-08-24T05:40:57;44.07;;;37.00;;
3633;SDS011;1833;42.718;23.270;2023-08-24T05:43:24;40.40;;;36.60;;
3633;SDS011;1833;42.718;23.270;2023-08-24T05:45:53;41.87;;;37.97;;
3633;SDS011;1833;42.718;23.270;2023-08-24T05:48:20;40.67;;;36.67;;
3633;SDS011;1833;42.718;23.270;2023-08-24T05:50:47;45.57;;;40.80;;
3633;SDS011;1833;42.718;23.270;2023-08-24T05:53:14;43.90;;;39.13;;
3633;SDS011;1833;42.718;23.270;2023-08-24T05:55:42;44.83;;;40.03;;
3633;SDS011;1833;42.718;23.270;2023-08-24T05:58:09;43.97;;;39.53;;
3633;SDS011;1833;42.718;23.270;2023-08-24T06:00:36;42.20;;;38.00;;
3633;SDS011;1833;42.718;23.270;2023-08-24T06:03:05;41.63;;;37.83;;
3633;SDS011;1833;42.718;23.270;2023-08-24T06:05:32;40.47;;;36.47;;
3633;SDS011;1833;42.718;23.270;2023-08-24T06:07:59;43.30;;;39.23;;
3633;SDS011;1833;42.718;23.270;2023-08-24T06:10:26;43.40;;;39.17;;
3633;SDS011;1833;42.718;23.270;2023-08-24T06:12:55;49.13;;;36.33;;
3633;SDS011;1833;42.718;23.270;2023-08-24T06:15:23;42.70;;;38.37;;
3633;SDS011;1833;42.718;23.270;2023-08-24T06:17:53;44.47;;;39.60;;
3633;SDS011;1833;42.718;23.270;2023-08-24T06:20:21;43.47;;;39.23;;
3633;SDS011;1833;42.718;23.270;2023-08-24T06:22:48;41.53;;;37.83;;
3633;SDS011;1833;42.718;23.270;2023-08-24T06:25:16;51.60;;;37.70;;
3633;SDS011;1833;42.718;23.270;2023-08-24T06:27:44;44.53;;;40.23;;
3633;SDS011;1833;42.718;23.270;2023-08-24T06:30:11;48.20;;;39.50;;
3633;SDS011;1833;42.718;23.270;2023-08-24T06:32:39;45.93;;;40.73;;
3633;SDS011;1833;42.718;23.270;2023-08-24T06:35:06;46.37;;;41.77;;
3633;SDS011;1833;42.718;23.270;2023-08-24T06:37:41;44.17;;;39.97;;
3633;SDS011;1833;42.718;23.270;2023-08-24T06:40:08;45.50;;;40.80;;
3633;SDS011;1833;42.718;23.270;2023-08-24T06:42:36;45.33;;;40.70;;
3633;SDS011;1833;42.718;23.270;2023-08-24T06:45:03;47.78;;;42.80;;
3633;SDS011;1833;42.718;23.270;2023-08-24T06:47:31;40.75;;;37.05;;
3633;SDS011;1833;42.718;23.270;2023-08-24T06:50:01;44.72;;;40.42;;
3633;SDS011;1833;42.718;23.270;2023-08-24T06:52:28;53.15;;;39.42;;
3633;SDS011;1833;42.718;23.270;2023-08-24T06:54:56;45.03;;;40.67;;
3633;SDS011;1833;42.718;23.270;2023-08-24T06:57:24;45.63;;;41.53;;
3633;SDS011;1833;42.718;23.270;2023-08-24T06:59:51;44.15;;;39.90;;
3633;SDS011;1833;42.718;23.270;2023-08-24T07:02:18;45.58;;;41.08;;
3633;SDS011;1833;42.718;23.270;2023-08-24T07:04:45;45.53;;;40.72;;
3633;SDS011;1833;42.718;23.270;2023-08-24T07:07:13;45.42;;;37.95;;
3633;SDS011;1833;42.718;23.270;2023-08-24T07:09:40;44.60;;;40.17;;
3633;SDS011;1833;42.718;23.270;2023-08-24T07:12:09;44.13;;;39.80;;
3633;SDS011;1833;42.718;23.270;2023-08-24T07:14:36;45.85;;;41.03;;
3633;SDS011;1833;42.718;23.270;2023-08-24T07:17:03;47.75;;;43.03;;
3633;SDS011;1833;42.718;23.270;2023-08-24T07:19:31;42.92;;;38.50;;
3633;SDS011;1833;42.718;23.270;2023-08-24T07:21:58;41.65;;;37.08;;
3633;SDS011;1833;42.718;23.270;2023-08-24T07:24:26;48.03;;;41.15;;
3633;SDS011;1833;42.718;23.270;2023-08-24T07:26:54;44.03;;;39.40;;
3633;SDS011;1833;42.718;23.270;2023-08-24T07:29:23;42.25;;;38.00;;
3633;SDS011;1833;42.718;23.270;2023-08-24T07:31:51;42.65;;;38.13;;
3633;SDS011;1833;42.718;23.270;2023-08-24T07:34:18;49.63;;;40.22;;
3633;SDS011;1833;42.718;23.270;2023-08-24T07:36:47;42.53;;;38.17;;
3633;SDS011;1833;42.718;23.270;2023-08-24T07:39:14;46.25;;;41.38;;
3633;SDS011;1833;42.718;23.270;2023-08-24T07:41:41;49.50;;;40.03;;
3633;SDS011;1833;42.718;23.270;2023-08-24T07:44:09;43.22;;;38.88;;
3633;SDS011;1833;42.718;23.270;2023-08-24T07:46:38;44.45;;;40.22;;
3633;SDS011;1833;42.718;23.270;2023-08-24T07:49:05;43.42;;;39.40;;
3633;SDS011;1833;42.718;23.270;2023-08-24T07:51:32;41.88;;;38.25;;
3633;SDS011;1833;42.718;23.270;2023-08-24T07:53:59;41.45;;;37.67;;
3633;SDS011;1833;42.718;23.270;2023-08-24T07:56:27;42.20;;;38.30;;
3633;SDS011;1833;42.718;23.270;2023-08-24T07:58:54;42.63;;;38.72;;
3633;SDS011;1833;42.718;23.270;2023-08-24T08:01:22;45.97;;;41.75;;
3633;SDS011;1833;42.718;23.270;2023-08-24T08:03:50;43.85;;;39.72;;
3633;SDS011;1833;42.718;23.270;2023-08-24T08:06:18;39.35;;;35.50;;
3633;SDS011;1833;42.718;23.270;2023-08-24T08:08:46;40.40;;;36.85;;
3633;SDS011;1833;42.718;23.270;2023-08-24T08:11:15;40.67;;;36.85;;
3633;SDS011;1833;42.718;23.270;2023-08-24T08:13:43;42.35;;;38.45;;
3633;SDS011;1833;42.718;23.270;2023-08-24T08:16:10;42.42;;;38.75;;
3633;SDS011;1833;42.718;23.270;2023-08-24T08:18:37;48.30;;;39.65;;
3633;SDS011;1833;42.718;23.270;2023-08-24T08:21:09;43.63;;;39.53;;
3633;SDS011;1833;42.718;23.270;2023-08-24T08:23:37;44.55;;;40.20;;
3633;SDS011;1833;42.718;23.270;2023-08-24T08:26:04;43.38;;;39.42;;
3633;SDS011;1833;42.718;23.270;2023-08-24T08:28:32;44.05;;;39.95;;
3633;SDS011;1833;42.718;23.270;2023-08-24T08:31:00;42.50;;;38.65;;
3633;SDS011;1833;42.718;23.270;2023-08-24T08:33:27;40.72;;;37.22;;
3633;SDS011;1833;42.718;23.270;2023-08-24T08:35:55;43.28;;;39.05;;
3633;SDS011;1833;42.718;23.270;2023-08-24T08:38:23;39.67;;;36.28;;
3633;SDS011;1833;42.718;23.270;2023-08-24T08:40:52;39.67;;;36.22;;
3633;SDS011;1833;42.718;23.270;2023-08-24T08:43:21;41.22;;;37.25;;
3633;SDS011;1833;42.718;23.270;2023-08-24T08:45:48;42.60;;;38.60;;
3633;SDS011;1833;42.718;23.270;2023-08-24T08:48:16;44.08;;;39.63;;
3633;SDS011;1833;42.718;23.270;2023-08-24T08:50:43;42.88;;;38.88;;
3633;SDS011;1833;42.718;23.270;2023-08-24T08:53:11;44.60;;;40.75;;
3633;SDS011;1833;42.718;23.270;2023-08-24T08:55:39;43.08;;;39.47;;
3633;SDS011;1833;42.718;23.270;2023-08-24T08:58:06;43.83;;;40.03;;
3633;SDS011;1833;42.718;23.270;2023-08-24T09:00:34;42.17;;;38.13;;
3633;SDS011;1833;42.718;23.270;2023-08-24T09:03:02;43.63;;;39.58;;
3633;SDS011;1833;42.718;23.270;2023-08-24T09:05:30;41.90;;;38.00;;
3633;SDS011;1833;42.718;23.270;2023-08-24T09:07:57;43.50;;;39.35;;
3633;SDS011;1833;42.718;23.270;2023-08-24T09:10:27;45.50;;;41.55;;
3633;SDS011;1833;42.718;23.270;2023-08-24T09:12:56;45.25;;;41.05;;
3633;SDS011;1833;42.718;23.270;2023-08-24T09:15:24;43.45;;;39.60;;
3633;SDS011;1833;42.718;23.270;2023-08-24T09:17:53;43.97;;;40.10;;
3633;SDS011;1833;42.718;23.270;2023-08-24T09:20:21;44.25;;;39.90;;
3633;SDS011;1833;42.718;23.270;2023-08-24T09:22:48;45.30;;;41.50;;
3633;SDS011;1833;42.718;23.270;2023-08-24T09:25:19;43.08;;;39.58;;
3633;SDS011;1833;42.718;23.270;2023-08-24T09:27:46;45.97;;;41.65;;
3633;SDS011;1833;42.718;23.270;2023-08-24T09:30:24;44.08;;;40.35;;
3633;SDS011;1833;42.718;23.270;2023-08-24T09:33:00;45.80;;;42.05;;
3633;SDS011;1833;42.718;23.270;2023-08-24T09:35:33;44.45;;;40.47;;
3633;SDS011;1833;42.718;23.270;2023-08-24T09:38:06;44.90;;;41.13;;
3633;SDS011;1833;42.718;23.270;2023-08-24T09:40:44;42.60;;;38.88;;
3633;SDS011;1833;42.718;23.270;2023-08-24T09:43:12;49.67;;;44.92;;
3633;SDS011;1833;42.718;23.270;2023-08-24T09:45:48;47.22;;;43.10;;
3633;SDS011;1833;42.718;23.270;2023-08-24T09:48:15;46.00;;;42.25;;
3633;SDS011;1833;42.718;23.270;2023-08-24T09:50:43;44.95;;;41.00;;
3633;SDS011;1833;42.718;23.270;2023-08-24T09:53:11;45.40;;;41.58;;
3633;SDS011;1833;42.718;23.270;2023-08-24T09:55:43;42.22;;;38.58;;
3633;SDS011;1833;42.718;23.270;2023-08-24T09:58:11;51.60;;;46.80;;
3633;SDS011;1833;42.718;23.270;2023-08-24T10:00:38;46.75;;;42.90;;
3633;SDS011;1833;42.718;23.270;2023-08-24T10:03:07;49.13;;;45.05;;
3633;SDS011;1833;42.718;23.270;2023-08-24T10:05:35;45.95;;;42.15;;
3633;SDS011;1833;42.718;23.270;2023-08-24T10:08:03;46.63;;;42.45;;
3633;SDS011;1833;42.718;23.270;2023-08-24T10:10:30;44.70;;;40.45;;
3633;SDS011;1833;42.718;23.270;2023-08-24T10:13:00;43.75;;;39.72;;
3633;SDS011;1833;42.718;23.270;2023-08-24T10:15:33;46.38;;;42.63;;
3633;SDS011;1833;42.718;23.270;2023-08-24T10:18:01;44.78;;;41.13;;
3633;SDS011;1833;42.718;23.270;2023-08-24T10:20:30;45.70;;;41.95;;
3633;SDS011;1833;42.718;23.270;2023-08-24T10:22:57;41.85;;;38.10;;
3633;SDS011;1833;42.718;23.270;2023-08-24T10:25:25;45.35;;;41.10;;
3633;SDS011;1833;42.718;23.270;2023-08-24T10:27:53;44.22;;;40.50;;
3633;SDS011;1833;42.718;23.270;2023-08-24T10:30:21;42.75;;;39.13;;
3633;SDS011;1833;42.718;23.270;2023-08-24T10:32:48;42.92;;;39.35;;
3633;SDS011;1833;42.718;23.270;2023-08-24T10:35:18;43.97;;;39.95;;
3633;SDS011;1833;42.718;23.270;2023-08-24T10:37:47;44.10;;;40.45;;
3633;SDS011;1833;42.718;23.270;2023-08-24T10:40:14;42.75;;;38.97;;
3633;SDS011;1833;42.718;23.270;2023-08-24T10:42:57;42.53;;;38.03;;
3633;SDS011;1833;42.718;23.270;2023-08-24T10:45:25;41.83;;;38.10;;
3633;SDS011;1833;42.718;23.270;2023-08-24T10:47:52;43.33;;;39.30;;
3633;SDS011;1833;42.718;23.270;2023-08-24T10:50:19;46.60;;;37.58;;
3633;SDS011;1833;42.718;23.270;2023-08-24T10:52:50;47.30;;;39.88;;
3633;SDS011;1833;42.718;23.270;2023-08-24T10:55:21;46.35;;;41.83;;
3633;SDS011;1833;42.718;23.270;2023-08-24T10:57:55;46.45;;;41.03;;
3633;SDS011;1833;42.718;23.270;2023-08-24T11:00:24;51.83;;;41.58;;
3633;SDS011;1833;42.718;23.270;2023-08-24T11:02:52;41.83;;;37.83;;
3633;SDS011;1833;42.718;23.270;2023-08-24T11:05:20;45.10;;;40.65;;
3633;SDS011;1833;42.718;23.270;2023-08-24T11:07:52;41.50;;;37.83;;
3633;SDS011;1833;42.718;23.270;2023-08-24T11:10:20;45.08;;;40.28;;
3633;SDS011;1833;42.718;23.270;2023-08-24T11:13:06;42.42;;;38.55;;
3633;SDS011;1833;42.718;23.270;2023-08-24T11:15:34;40.13;;;36.27;;
3633;SDS011;1833;42.718;23.270;2023-08-24T11:20:59;41.95;;;37.88;;
3633;SDS011;1833;42.718;23.270;2023-08-24T11:23:29;56.40;;;51.40;;
3633;SDS011;1833;42.718;23.270;2023-08-24T11:25:57;51.33;;;46.55;;
3633;SDS011;1833;42.718;23.270;2023-08-24T11:28:28;46.33;;;42.13;;
3633;SDS011;1833;42.718;23.270;2023-08-24T11:30:56;50.35;;;45.85;;
3633;SDS011;1833;42.718;23.270;2023-08-24T11:33:27;47.65;;;42.92;;
3633;SDS011;1833;42.718;23.270;2023-08-24T11:35:55;50.58;;;41.38;;
3633;SDS011;1833;42.718;23.270;2023-08-24T11:38:22;46.20;;;41.85;;
3633;SDS011;1833;42.718;23.270;2023-08-24T11:40:51;43.10;;;39.08;;
3633;SDS011;1833;42.718;23.270;2023-08-24T11:43:25;45.58;;;41.58;;
3633;SDS011;1833;42.718;23.270;2023-08-24T11:45:53;45.20;;;40.90;;
3633;SDS011;1833;42.718;23.270;2023-08-24T11:48:23;47.57;;;43.20;;
3633;SDS011;1833;42.718;23.270;2023-08-24T11:50:51;52.40;;;47.13;;
3633;SDS011;1833;42.718;23.270;2023-08-24T11:53:19;49.20;;;44.47;;
3633;SDS011;1833;42.718;23.270;2023-08-24T11:56:02;50.77;;;45.20;;
3633;SDS011;1833;42.718;23.270;2023-08-24T11:58:30;44.13;;;40.33;;
3633;SDS011;1833;42.718;23.270;2023-08-24T12:00:58;44.77;;;40.33;;
3633;SDS011;1833;42.718;23.270;2023-08-24T12:03:25;51.77;;;46.50;;
3633;SDS011;1833;42.718;23.270;2023-08-24T12:05:52;43.00;;;38.90;;
3633;SDS011;1833;42.718;23.270;2023-08-24T12:08:22;44.47;;;40.27;;
3633;SDS011;1833;42.718;23.270;2023-08-24T12:10:49;45.60;;;40.70;;
3633;SDS011;1833;42.718;23.270;2023-08-24T12:13:17;43.30;;;39.30;;
3633;SDS011;1833;42.718;23.270;2023-08-24T12:15:45;42.90;;;38.80;;
3633;SDS011;1833;42.718;23.270;2023-08-24T12:18:15;41.60;;;37.40;;
3633;SDS011;1833;42.718;23.270;2023-08-24T12:20:43;44.83;;;40.00;;
3633;SDS011;1833;42.718;23.270;2023-08-24T12:23:10;40.70;;;37.10;;
3633;SDS011;1833;42.718;23.270;2023-08-24T12:25:38;39.03;;;35.37;;
3633;SDS011;1833;42.718;23.270;2023-08-24T12:28:08;46.43;;;39.00;;
3633;SDS011;1833;42.718;23.270;2023-08-24T12:30:47;51.37;;;46.50;;
3633;SDS011;1833;42.718;23.270;2023-08-24T12:33:22;42.93;;;38.77;;
3633;SDS011;1833;42.718;23.270;2023-08-24T12:35:49;43.92;;;40.17;;
3633;SDS011;1833;42.718;23.270;2023-08-24T12:38:17;43.83;;;39.53;;
3633;SDS011;1833;42.718;23.270;2023-08-24T12:40:44;43.17;;;39.67;;
3633;SDS011;1833;42.718;23.270;2023-08-24T12:43:11;45.92;;;41.65;;
3633;SDS011;1833;42.718;23.270;2023-08-24T12:45:38;46.63;;;41.90;;
3633;SDS011;1833;42.718;23.270;2023-08-24T12:48:07;46.00;;;42.00;;
3633;SDS011;1833;42.718;23.270;2023-08-24T12:50:35;44.60;;;40.40;;
3633;SDS011;1833;42.718;23.270;2023-08-24T12:53:02;44.22;;;39.72;;
3633;SDS011;1833;42.718;23.270;2023-08-24T12:55:31;46.97;;;42.97;;
3633;SDS011;1833;42.718;23.270;2023-08-24T12:57:59;45.55;;;41.85;;
3633;SDS011;1833;42.718;23.270;2023-08-24T13:00:26;45.00;;;41.03;;
3633;SDS011;1833;42.718;23.270;2023-08-24T13:02:53;43.08;;;39.00;;
3633;SDS011;1833;42.718;23.270;2023-08-24T13:05:22;42.53;;;38.70;;
3633;SDS011;1833;42.718;23.270;2023-08-24T13:07:49;50.03;;;41.63;;
3633;SDS011;1833;42.718;23.270;2023-08-24T13:10:17;43.30;;;39.50;;
3633;SDS011;1833;42.718;23.270;2023-08-24T13:12:44;46.00;;;41.55;;
3633;SDS011;1833;42.718;23.270;2023-08-24T13:15:11;44.65;;;40.53;;
3633;SDS011;1833;42.718;23.270;2023-08-24T13:17:40;42.92;;;39.15;;
3633;SDS011;1833;42.718;23.270;2023-08-24T13:20:07;45.95;;;41.90;;
3633;SDS011;1833;42.718;23.270;2023-08-24T13:22:36;44.45;;;40.80;;
3633;SDS011;1833;42.718;23.270;2023-08-24T13:25:04;42.53;;;38.75;;
3633;SDS011;1833;42.718;23.270;2023-08-24T13:27:31;39.92;;;36.72;;
3633;SDS011;1833;42.718;23.270;2023-08-24T13:29:59;42.03;;;38.35;;
3633;SDS011;1833;42.718;23.270;2023-08-24T13:32:27;41.60;;;38.08;;
3633;SDS011;1833;42.718;23.270;2023-08-24T13:34:54;40.25;;;36.30;;
3633;SDS011;1833;42.718;23.270;2023-08-24T13:37:22;43.03;;;38.90;;
3633;SDS011;1833;42.718;23.270;2023-08-24T13:39:51;43.00;;;39.33;;
3633;SDS011;1833;42.718;23.270;2023-08-24T13:42:18;41.72;;;37.88;;
3633;SDS011;1833;42.718;23.270;2023-08-24T13:44:45;38.22;;;35.03;;
3633;SDS011;1833;42.718;23.270;2023-08-24T13:47:12;38.30;;;34.45;;
3633;SDS011;1833;42.718;23.270;2023-08-24T13:49:40;39.63;;;35.92;;
3633;SDS011;1833;42.718;23.270;2023-08-24T13:52:07;41.67;;;37.78;;
3633;SDS011;1833;42.718;23.270;2023-08-24T13:54:35;37.03;;;33.90;;
3633;SDS011;1833;42.718;23.270;2023-08-24T13:57:03;39.50;;;35.58;;
3633;SDS011;1833;42.718;23.270;2023-08-24T13:59:31;38.63;;;35.30;;
3633;SDS011;1833;42.718;23.270;2023-08-24T14:01:59;44.42;;;35.55;;
3633;SDS011;1833;42.718;23.270;2023-08-24T14:04:26;40.15;;;36.60;;
3633;SDS011;1833;42.718;23.270;2023-08-24T14:06:53;40.05;;;36.25;;
3633;SDS011;1833;42.718;23.270;2023-08-24T14:09:20;38.75;;;34.95;;
3633;SDS011;1833;42.718;23.270;2023-08-24T14:11:48;42.25;;;38.25;;
3633;SDS011;1833;42.718;23.270;2023-08-24T14:14:16;40.33;;;36.50;;
3633;SDS011;1833;42.718;23.270;2023-08-24T14:16:44;41.75;;;37.50;;
3633;SDS011;1833;42.718;23.270;2023-08-24T14:19:11;45.97;;;40.97;;
3633;SDS011;1833;42.718;23.270;2023-08-24T14:21:38;44.53;;;40.22;;
3633;SDS011;1833;42.718;23.270;2023-08-24T14:24:06;44.05;;;39.80;;
3633;SDS011;1833;42.718;23.270;2023-08-24T14:26:33;44.83;;;40.05;;
3633;SDS011;1833;42.718;23.270;2023-08-24T14:29:02;41.38;;;37.58;;
3633;SDS011;1833;42.718;23.270;2023-08-24T14:31:31;41.28;;;37.53;;
3633;SDS011;1833;42.718;23.270;2023-08-24T14:33:58;39.03;;;35.35;;
3633;SDS011;1833;42.718;23.270;2023-08-24T14:36:25;40.63;;;37.28;;
3633;SDS011;1833;42.718;23.270;2023-08-24T14:38:52;40.38;;;36.72;;
3633;SDS011;1833;42.718;23.270;2023-08-24T14:41:20;40.65;;;36.80;;